createdAt,value
2023-01-09T00:00:32.575Z,99039.94
2023-01-09T00:03:01.145Z,99041.31
2023-01-09T00:05:28.178Z,99041.31
2023-01-09T00:07:55.039Z,99041.44
2023-01-09T00:10:21.925Z,99033.38
2023-01-09T00:12:49.056Z,99038.19
2023-01-09T00:15:15.945Z,99045.59
2023-01-09T00:17:42.907Z,99041.09
2023-01-09T00:20:11.862Z,99048.94
2023-01-09T00:22:38.717Z,99046.97
2023-01-09T00:25:06.542Z,99055.41
2023-01-09T00:27:34.249Z,99049.50
2023-01-09T00:30:01.340Z,99057.72
2023-01-09T00:32:28.900Z,99042.16
2023-01-09T00:34:56.441Z,99050.81
2023-01-09T00:37:24.788Z,99050.72
2023-01-09T00:39:51.702Z,99055.00
2023-01-09T00:42:22.375Z,99048.97
2023-01-09T00:44:53.209Z,99048.66
2023-01-09T00:47:23.217Z,99050.94
2023-01-09T00:49:51.810Z,99044.25
2023-01-09T00:52:19.778Z,99047.59
2023-01-09T00:54:49.086Z,99034.88
2023-01-09T00:57:16.186Z,99036.75
2023-01-09T00:59:43.987Z,99041.56
2023-01-09T01:02:11.101Z,99031.84
2023-01-09T01:04:56.472Z,99027.91
2023-01-09T01:07:38.423Z,99027.91
2023-01-09T01:10:10.566Z,99028.38
2023-01-09T01:12:37.855Z,99036.69
2023-01-09T01:15:05.838Z,99037.25
2023-01-09T01:17:34.584Z,99029.94
2023-01-09T01:20:01.487Z,99021.38
2023-01-09T01:22:28.412Z,99017.44
2023-01-09T01:24:55.322Z,99022.19
2023-01-09T01:27:24.105Z,99009.84
2023-01-09T01:29:51.517Z,99006.97
2023-01-09T01:32:18.578Z,99012.97
2023-01-09T01:34:47.515Z,99003.75
2023-01-09T01:37:14.698Z,99008.94
2023-01-09T01:39:41.942Z,99004.09
2023-01-09T01:42:08.839Z,99012.22
2023-01-09T01:45:00.863Z,99010.75
2023-01-09T01:47:34.939Z,99012.81
2023-01-09T01:50:05.468Z,99018.91
2023-01-09T01:52:36.475Z,99022.94
2023-01-09T01:55:07.331Z,99021.75
2023-01-09T01:57:36.103Z,99020.78
2023-01-09T02:00:06.922Z,99013.00
2023-01-09T02:02:33.825Z,99007.84
2023-01-09T02:05:02.716Z,99012.91
2023-01-09T02:07:30.127Z,99013.72
2023-01-09T02:09:57.559Z,99007.13
2023-01-09T02:12:26.489Z,99010.59
2023-01-09T02:14:58.731Z,98998.44
2023-01-09T02:17:41.050Z,98999.16
2023-01-09T02:20:40.281Z,98995.88
2023-01-09T02:23:34.861Z,98985.72
2023-01-09T02:26:17.515Z,98981.50
2023-01-09T02:29:13.138Z,98975.81
2023-01-09T02:31:49.402Z,98964.06
2023-01-09T02:34:25.064Z,98981.97
2023-01-09T02:36:59.907Z,98970.16
2023-01-09T02:39:31.661Z,98960.06
2023-01-09T02:42:04.220Z,98966.06
2023-01-09T02:44:34.458Z,98954.97
2023-01-09T02:47:05.217Z,98964.00
2023-01-09T02:49:33.276Z,98968.50
2023-01-09T02:52:11.340Z,98967.00
2023-01-09T02:54:50.684Z,98967.25
2023-01-09T02:57:32.236Z,98965.72
2023-01-09T03:00:18.945Z,98957.31
2023-01-09T03:02:53.321Z,98950.47
2023-01-09T03:05:25.613Z,98957.66
2023-01-09T03:08:00.200Z,98958.63
2023-01-09T03:10:36.026Z,98953.16
2023-01-09T03:13:04.223Z,98957.66
2023-01-09T03:15:35.204Z,98947.44
2023-01-09T03:18:04.952Z,98945.31
2023-01-09T03:20:32.944Z,98943.44
2023-01-09T03:23:02.998Z,98930.09
2023-01-09T03:25:31.274Z,98938.41
2023-01-09T03:28:00.189Z,98930.09
2023-01-09T03:30:29.071Z,98915.34
2023-01-09T03:32:56.309Z,98921.97
2023-01-09T03:35:25.454Z,98922.78
2023-01-09T03:37:52.463Z,98921.44
2023-01-09T03:40:19.783Z,98916.59
2023-01-09T03:42:47.155Z,98916.31
2023-01-09T03:45:15.295Z,98915.78
2023-01-09T03:47:42.189Z,98932.41
2023-01-09T03:50:10.084Z,98928.84
2023-01-09T03:52:38.295Z,98929.38
2023-01-09T03:55:05.918Z,98925.34
2023-01-09T03:57:32.827Z,98923.81
2023-01-09T03:59:59.675Z,98935.38
2023-01-09T04:02:26.592Z,98934.13
2023-01-09T04:04:53.511Z,98953.78
2023-01-09T04:07:20.407Z,98944.31
2023-01-09T04:09:48.697Z,98947.69
2023-01-09T04:12:15.653Z,98956.75
2023-01-09T04:14:42.566Z,98967.31
2023-01-09T04:17:09.469Z,98972.31
2023-01-09T04:19:36.356Z,98969.72
2023-01-09T04:22:03.293Z,98978.22
2023-01-09T04:24:32.159Z,98973.84
2023-01-09T04:27:00.408Z,98970.59
2023-01-09T04:29:27.361Z,98963.47
2023-01-09T04:31:54.226Z,98968.38
2023-01-09T04:34:25.602Z,98971.25
2023-01-09T04:36:53.370Z,98973.38
2023-01-09T04:39:20.329Z,98984.66
2023-01-09T04:41:49.853Z,98981.63
2023-01-09T04:44:19.404Z,98989.56
2023-01-09T04:46:46.826Z,98991.63
2023-01-09T04:49:13.718Z,98998.91
2023-01-09T04:51:40.672Z,99001.75
2023-01-09T04:54:07.779Z,99006.84
2023-01-09T04:56:34.665Z,99014.91
2023-01-09T04:59:01.487Z,99019.72
2023-01-09T05:01:29.884Z,99009.97
2023-01-09T05:03:57.074Z,99025.56
2023-01-09T05:06:24.176Z,99029.94
2023-01-09T05:08:51.133Z,99034.03
2023-01-09T05:11:18.497Z,99052.59
2023-01-09T05:13:45.425Z,99056.97
2023-01-09T05:16:12.285Z,99068.97
2023-01-09T05:18:40.700Z,99058.22
2023-01-09T05:21:07.557Z,99073.38
2023-01-09T05:23:34.492Z,99070.59
2023-01-09T05:26:01.401Z,99074.00
2023-01-09T05:28:28.301Z,99076.59
2023-01-09T05:30:55.163Z,99079.06
2023-01-09T05:33:22.195Z,99081.44
2023-01-09T05:35:50.424Z,99099.84
2023-01-09T05:38:17.413Z,99094.75
2023-01-09T05:40:44.330Z,99088.41
2023-01-09T05:43:11.164Z,99088.94
2023-01-09T05:45:38.031Z,99089.28
2023-01-09T05:48:06.004Z,99094.75
2023-01-09T05:50:33.028Z,99104.53
2023-01-09T05:53:01.327Z,99115.25
2023-01-09T05:55:28.218Z,99115.00
2023-01-09T05:57:55.029Z,99122.19
2023-01-09T06:00:22.322Z,99115.19
2023-01-09T06:02:49.211Z,99123.50
2023-01-09T06:05:16.414Z,99118.84
2023-01-09T06:07:43.244Z,99132.03
2023-01-09T06:10:14.896Z,99129.69
2023-01-09T06:12:44.758Z,99132.38
2023-01-09T06:15:12.032Z,99133.16
2023-01-09T06:17:38.847Z,99147.50
2023-01-09T06:20:06.620Z,99148.56
2023-01-09T06:22:33.470Z,99151.09
2023-01-09T06:25:00.323Z,99168.00
2023-01-09T06:27:28.542Z,99161.22
2023-01-09T06:29:55.419Z,99173.47
2023-01-09T06:32:22.220Z,99184.41
2023-01-09T06:34:49.115Z,99191.88
2023-01-09T06:37:15.939Z,99204.94
2023-01-09T06:39:42.886Z,99202.16
2023-01-09T06:42:09.826Z,99214.34
2023-01-09T06:44:38.118Z,99217.56
2023-01-09T06:47:05.344Z,99223.22
2023-01-09T06:49:32.216Z,99236.38
2023-01-09T06:51:59.221Z,99229.78
2023-01-09T06:54:28.590Z,99248.66
2023-01-09T06:56:55.531Z,99243.53
2023-01-09T06:59:22.426Z,99246.22
2023-01-09T07:01:50.933Z,99247.16
2023-01-09T07:04:17.991Z,99246.78
2023-01-09T07:06:47.670Z,99256.63
2023-01-09T07:09:14.957Z,99252.69
2023-01-09T07:11:42.060Z,99270.50
2023-01-09T07:14:08.973Z,99278.03
2023-01-09T07:16:35.889Z,99281.63
2023-01-09T07:19:04.081Z,99285.56
2023-01-09T07:21:32.769Z,99290.66
2023-01-09T07:23:59.955Z,99295.97
2023-01-09T07:26:26.850Z,99299.53
2023-01-09T07:28:54.611Z,99297.03
2023-01-09T07:31:21.648Z,99301.31
2023-01-09T07:33:48.590Z,99302.41
2023-01-09T07:36:16.854Z,99308.75
2023-01-09T07:38:43.765Z,99312.31
2023-01-09T07:41:10.723Z,99305.88
2023-01-09T07:43:38.189Z,99301.50
2023-01-09T07:46:05.508Z,99321.03
2023-01-09T07:48:32.727Z,99330.06
2023-01-09T07:50:59.823Z,99327.44
2023-01-09T07:53:28.333Z,99337.03
2023-01-09T07:55:55.262Z,99342.69
2023-01-09T07:58:22.221Z,99345.69
2023-01-09T08:00:50.533Z,99358.31
2023-01-09T08:03:17.447Z,99362.16
2023-01-09T08:05:44.401Z,99363.09
2023-01-09T08:08:11.271Z,99363.34
2023-01-09T08:10:39.545Z,99369.47
2023-01-09T08:13:06.611Z,99372.13
2023-01-09T08:15:33.701Z,99373.03
2023-01-09T08:18:00.625Z,99384.16
2023-01-09T08:20:30.468Z,99389.09
2023-01-09T08:22:57.446Z,99379.38
2023-01-09T08:25:24.360Z,99393.50
2023-01-09T08:27:52.699Z,99398.34
2023-01-09T08:30:19.866Z,99402.41
2023-01-09T08:32:50.213Z,99407.59
2023-01-09T08:35:17.363Z,99408.84
2023-01-09T08:37:44.983Z,99411.16
2023-01-09T08:40:12.745Z,99412.09
2023-01-09T08:42:58.723Z,99429.06
2023-01-09T08:45:45.465Z,99429.06
2023-01-09T08:48:12.584Z,99432.09
2023-01-09T08:50:39.456Z,99437.31
2023-01-09T08:53:06.305Z,99451.91
2023-01-09T08:55:33.181Z,99458.72
2023-01-09T08:58:00.065Z,99456.19
2023-01-09T09:00:28.437Z,99472.94
2023-01-09T09:02:57.077Z,99462.88
2023-01-09T09:05:25.425Z,99472.91
2023-01-09T09:07:56.703Z,99481.56
2023-01-09T09:10:25.368Z,99482.91
2023-01-09T09:12:55.330Z,99489.72
2023-01-09T09:15:26.705Z,99493.66
2023-01-09T09:17:56.848Z,99495.06
2023-01-09T09:20:26.055Z,99505.47
2023-01-09T09:22:52.958Z,99508.47
2023-01-09T09:25:20.380Z,99517.63
2023-01-09T09:27:47.889Z,99518.09
2023-01-09T09:30:16.953Z,99521.94
2023-01-09T09:32:43.903Z,99531.91
2023-01-09T09:35:12.647Z,99536.66
2023-01-09T09:37:39.963Z,99532.25
2023-01-09T09:40:18.419Z,99554.22
2023-01-09T09:43:36.575Z,99554.31
2023-01-09T09:46:12.478Z,99565.00
2023-01-09T09:48:47.169Z,99559.63
2023-01-09T09:51:30.569Z,99562.28
2023-01-09T09:54:00.867Z,99565.44
2023-01-09T09:56:34.570Z,99578.16
2023-01-09T09:59:05.323Z,99588.66
2023-01-09T10:01:39.880Z,99592.53
2023-01-09T10:04:11.233Z,99599.88
2023-01-09T10:06:43.140Z,99609.97
2023-01-09T10:09:24.380Z,99617.00
2023-01-09T10:11:57.227Z,99612.84
2023-01-09T10:14:24.953Z,99623.97
2023-01-09T10:17:09.094Z,99620.16
2023-01-09T10:19:51.985Z,99632.28
2023-01-09T10:22:29.791Z,99642.69
2023-01-09T10:25:08.544Z,99649.38
2023-01-09T10:27:49.262Z,99650.50
2023-01-09T10:30:28.346Z,99649.81
2023-01-09T10:33:06.519Z,99655.59
2023-01-09T10:35:55.156Z,99654.66
2023-01-09T10:39:23.887Z,99661.16
2023-01-09T10:41:58.349Z,99652.44
2023-01-09T10:44:33.285Z,99656.28
2023-01-09T10:47:01.690Z,99658.47
2023-01-09T10:49:28.834Z,99666.28
2023-01-09T10:52:15.391Z,99667.63
2023-01-09T10:54:53.455Z,99664.69
2023-01-09T10:57:34.138Z,99661.81
2023-01-09T11:00:01.150Z,99669.06
2023-01-09T11:02:31.018Z,99667.09
2023-01-09T11:04:57.966Z,99674.72
2023-01-09T11:07:29.504Z,99675.44
2023-01-09T11:10:00.367Z,99676.00
2023-01-09T11:12:28.984Z,99680.41
2023-01-09T11:14:56.080Z,99680.56
2023-01-09T11:17:27.128Z,99677.78
2023-01-09T11:20:05.836Z,99684.28
2023-01-09T11:22:43.901Z,99680.41
2023-01-09T11:25:15.243Z,99686.91
2023-01-09T11:27:42.125Z,99685.56
2023-01-09T11:30:22.584Z,99685.81
2023-01-09T11:32:49.619Z,99700.13
2023-01-09T11:35:20.717Z,99709.13
2023-01-09T11:37:50.065Z,99707.84
2023-01-09T11:40:22.067Z,99702.56
2023-01-09T11:43:14.316Z,99703.16
2023-01-09T11:45:56.267Z,99704.06
2023-01-09T11:48:38.662Z,99703.00
2023-01-09T11:51:17.267Z,99706.25
2023-01-09T11:53:52.661Z,99708.16
2023-01-09T11:56:21.000Z,99718.50
2023-01-09T11:58:47.949Z,99717.06
2023-01-09T12:01:34.765Z,99716.34
2023-01-09T12:04:19.762Z,99715.34
2023-01-09T12:06:56.830Z,99720.13
2023-01-09T12:09:29.258Z,99728.75
2023-01-09T12:12:07.808Z,99721.56
2023-01-09T12:14:45.294Z,99722.09
2023-01-09T12:17:47.039Z,99725.88
2023-01-09T12:20:26.917Z,99729.56
2023-01-09T12:23:01.466Z,99730.06
2023-01-09T12:25:37.806Z,99730.06
2023-01-09T12:28:31.035Z,99725.19
2023-01-09T12:31:07.576Z,99721.13
2023-01-09T12:33:43.134Z,99727.09
2023-01-09T12:36:18.660Z,99734.72
2023-01-09T12:38:49.093Z,99741.09
2023-01-09T12:41:55.794Z,99745.50
2023-01-09T12:44:58.157Z,99742.34
2023-01-09T12:47:46.485Z,99737.69
2023-01-09T12:50:39.137Z,99745.16
2023-01-09T12:53:14.595Z,99741.25
2023-01-09T12:55:46.449Z,99739.97
2023-01-09T12:58:28.611Z,99744.13
2023-01-09T13:01:00.450Z,99745.94
2023-01-09T13:03:32.607Z,99749.34
2023-01-09T13:06:01.548Z,99744.13
2023-01-09T13:08:32.012Z,99748.50
2023-01-09T13:11:19.033Z,99755.50
2023-01-09T13:13:51.142Z,99758.03
2023-01-09T13:16:24.633Z,99766.69
2023-01-09T13:18:56.490Z,99766.53
2023-01-09T13:21:24.030Z,99771.53
2023-01-09T13:23:56.321Z,99780.50
2023-01-09T13:26:25.984Z,99787.63
2023-01-09T13:28:59.896Z,99784.56
2023-01-09T13:31:56.140Z,99782.56
2023-01-09T13:34:25.751Z,99795.25
2023-01-09T13:36:55.138Z,99794.75
2023-01-09T13:39:25.014Z,99799.34
2023-01-09T13:42:15.728Z,99807.88
2023-01-09T13:44:43.053Z,99809.88
2023-01-09T13:47:19.455Z,99820.44
2023-01-09T13:50:21.523Z,99824.16
2023-01-09T13:52:50.084Z,99831.75
2023-01-09T13:55:36.059Z,99837.34
2023-01-09T13:58:25.688Z,99844.06
2023-01-09T14:00:58.768Z,99851.88
2023-01-09T14:03:33.296Z,99857.31
2023-01-09T14:06:17.941Z,99868.44
2023-01-09T14:08:50.644Z,99865.41
2023-01-09T14:11:20.800Z,99868.66
2023-01-09T14:14:03.780Z,99865.28
2023-01-09T14:16:32.304Z,99869.81
2023-01-09T14:19:05.901Z,99859.72
2023-01-09T14:21:52.431Z,99879.34
2023-01-09T14:24:23.951Z,99882.56
2023-01-09T14:26:56.648Z,99887.44
2023-01-09T14:29:44.671Z,99893.38
2023-01-09T14:32:43.377Z,99897.06
2023-01-09T14:35:19.939Z,99917.56
2023-01-09T14:37:56.410Z,99930.34
2023-01-09T14:40:23.821Z,99933.25
2023-01-09T14:42:54.414Z,99947.19
2023-01-09T14:45:23.441Z,99940.47
2023-01-09T14:47:55.853Z,99953.50
2023-01-09T14:50:32.211Z,99957.25
2023-01-09T14:53:05.788Z,99969.09
2023-01-09T14:55:40.165Z,99968.28
2023-01-09T14:58:11.522Z,99980.19
2023-01-09T15:00:47.817Z,100000.53
2023-01-09T15:03:15.312Z,99994.75
2023-01-09T15:05:45.152Z,100002.97
2023-01-09T15:08:17.070Z,100012.03
2023-01-09T15:10:46.586Z,100010.75
2023-01-09T15:13:18.059Z,100022.34
2023-01-09T15:15:46.811Z,100024.31
2023-01-09T15:18:24.284Z,100029.53
2023-01-09T15:20:59.347Z,100032.78
2023-01-09T15:23:30.226Z,100042.28
2023-01-09T15:25:57.719Z,100046.41
2023-01-09T15:28:30.863Z,100052.44
2023-01-09T15:31:04.926Z,100055.06
2023-01-09T15:33:32.764Z,100061.44
2023-01-09T15:36:05.882Z,100063.41
2023-01-09T15:38:35.995Z,100070.75
2023-01-09T15:41:08.643Z,100073.34
2023-01-09T15:43:39.670Z,100074.28
2023-01-09T15:46:06.825Z,100083.97
2023-01-09T15:48:35.407Z,100085.72
2023-01-09T15:51:06.634Z,100087.81
2023-01-09T15:53:34.221Z,100101.53
2023-01-09T15:56:20.305Z,100098.06
2023-01-09T15:58:48.415Z,100118.31
2023-01-09T16:01:32.105Z,100122.09
2023-01-09T16:04:06.017Z,100119.63
2023-01-09T16:06:34.813Z,100128.56
2023-01-09T16:09:02.876Z,100139.03
2023-01-09T16:11:32.792Z,100146.56
2023-01-09T16:14:14.235Z,100145.41
2023-01-09T16:16:41.927Z,100151.94
2023-01-09T16:19:33.226Z,100159.72
2023-01-09T16:22:02.927Z,100164.59
2023-01-09T16:24:40.067Z,100172.00
2023-01-09T16:27:30.037Z,100183.75
2023-01-09T16:29:59.521Z,100210.31
2023-01-09T16:32:29.670Z,100219.47
2023-01-09T16:34:58.826Z,100224.16
2023-01-09T16:37:28.176Z,100235.78
2023-01-09T16:40:26.434Z,100239.59
2023-01-09T16:43:01.749Z,100226.56
2023-01-09T16:45:31.598Z,100247.19
2023-01-09T16:47:58.714Z,100247.50
2023-01-09T16:50:26.419Z,100254.53
2023-01-09T16:52:56.525Z,100256.66
2023-01-09T16:55:23.469Z,100262.03
2023-01-09T16:57:50.413Z,100269.56
2023-01-09T17:00:18.947Z,100267.09
2023-01-09T17:02:46.057Z,100276.09
2023-01-09T17:05:13.103Z,100278.88
2023-01-09T17:07:39.969Z,100280.19
2023-01-09T17:10:18.477Z,100288.53
2023-01-09T17:12:45.524Z,100302.03
2023-01-09T17:15:12.488Z,100309.22
2023-01-09T17:17:39.318Z,100318.50
2023-01-09T17:20:14.804Z,100315.59
2023-01-09T17:22:41.679Z,100317.06
2023-01-09T17:25:49.435Z,100310.06
2023-01-09T17:28:34.212Z,100337.81
2023-01-09T17:31:02.091Z,100354.97
2023-01-09T17:33:29.516Z,100357.75
2023-01-09T17:35:56.793Z,100362.63
2023-01-09T17:38:23.771Z,100365.56
2023-01-09T17:40:55.520Z,100370.97
2023-01-09T17:43:22.427Z,100376.03
2023-01-09T17:45:49.561Z,100389.09
2023-01-09T17:48:18.081Z,100375.38
2023-01-09T17:50:45.581Z,100383.34
2023-01-09T17:53:12.895Z,100399.69
2023-01-09T17:55:41.283Z,100402.13
2023-01-09T17:58:24.625Z,100405.56
2023-01-09T18:00:51.753Z,100409.00
2023-01-09T18:03:20.794Z,100416.84
2023-01-09T18:05:47.619Z,100428.44
2023-01-09T18:08:14.997Z,100426.00
2023-01-09T18:10:43.083Z,100433.03
2023-01-09T18:13:11.419Z,100435.16
2023-01-09T18:15:41.506Z,100437.41
2023-01-09T18:18:08.292Z,100433.31
2023-01-09T18:20:39.118Z,100432.97
2023-01-09T18:23:06.025Z,100431.00
2023-01-09T18:25:32.929Z,100454.97
2023-01-09T18:28:00.721Z,100465.00
2023-01-09T18:30:29.050Z,100464.34
2023-01-09T18:32:55.863Z,100475.63
2023-01-09T18:35:22.787Z,100479.38
2023-01-09T18:37:49.753Z,100481.50
2023-01-09T18:40:16.911Z,100494.28
2023-01-09T18:42:45.489Z,100503.56
2023-01-09T18:45:12.513Z,100524.13
2023-01-09T18:47:40.770Z,100522.00
2023-01-09T18:50:08.694Z,100537.00
2023-01-09T18:52:35.558Z,100542.09
2023-01-09T18:55:02.575Z,100557.63
2023-01-09T18:57:29.432Z,100552.84
2023-01-09T18:59:56.452Z,100570.53
2023-01-09T19:02:26.067Z,100570.34
2023-01-09T19:04:54.317Z,100577.25
2023-01-09T19:07:21.372Z,100577.75
2023-01-09T19:09:48.216Z,100587.22
2023-01-09T19:12:15.087Z,100590.50
2023-01-09T19:14:41.999Z,100593.94
2023-01-09T19:17:08.858Z,100604.25
2023-01-09T19:19:35.824Z,100605.72
2023-01-09T19:22:04.044Z,100606.09
2023-01-09T19:24:33.008Z,100613.09
2023-01-09T19:27:00.195Z,100629.81
2023-01-09T19:29:27.746Z,100616.88
2023-01-09T19:31:54.826Z,100617.03
2023-01-09T19:34:21.993Z,100623.41
2023-01-09T19:36:48.965Z,100638.44
2023-01-09T19:39:17.307Z,100631.72
2023-01-09T19:41:44.204Z,100641.88
2023-01-09T19:44:11.185Z,100637.91
2023-01-09T19:46:38.162Z,100641.28
2023-01-09T19:49:06.090Z,100644.19
2023-01-09T19:51:34.131Z,100645.13
2023-01-09T19:56:31.177Z,100640.81
2023-01-09T19:59:00.527Z,100659.47
2023-01-09T20:01:29.141Z,100654.97
2023-01-09T20:03:57.268Z,100667.13
2023-01-09T20:06:26.417Z,100661.13
2023-01-09T20:08:54.959Z,100673.22
2023-01-09T20:11:23.060Z,100674.03
2023-01-09T20:13:51.583Z,100670.94
2023-01-09T20:16:20.686Z,100676.63
2023-01-09T20:18:48.206Z,100683.91
2023-01-09T20:21:17.415Z,100691.75
2023-01-09T20:23:44.336Z,100695.16
2023-01-09T20:26:11.243Z,100698.91
2023-01-09T20:28:38.149Z,100709.97
2023-01-09T20:31:10.505Z,100709.75
2023-01-09T20:33:37.562Z,100712.22
2023-01-09T20:36:05.283Z,100719.41
2023-01-09T20:38:32.858Z,100723.63
2023-01-09T20:41:07.381Z,100729.38
2023-01-09T20:43:34.655Z,100719.59
2023-01-09T20:46:02.922Z,100729.78
2023-01-09T20:48:31.478Z,100726.91
2023-01-09T20:51:03.815Z,100731.97
2023-01-09T20:53:30.742Z,100738.88
2023-01-09T20:55:59.988Z,100738.06
2023-01-09T20:58:28.561Z,100739.50
2023-01-09T21:00:55.714Z,100742.41
2023-01-09T21:03:22.877Z,100745.66
2023-01-09T21:05:51.243Z,100757.00
2023-01-09T21:08:18.192Z,100759.28
2023-01-09T21:10:45.030Z,100760.41
2023-01-09T21:13:12.145Z,100763.97
2023-01-09T21:15:39.089Z,100764.91
2023-01-09T21:18:06.077Z,100772.97
2023-01-09T21:20:32.937Z,100773.53
2023-01-09T21:23:01.194Z,100793.94
2023-01-09T21:25:28.103Z,100803.34
2023-01-09T21:27:54.975Z,100807.16
2023-01-09T21:30:21.931Z,100809.59
2023-01-09T21:32:48.782Z,100806.75
2023-01-09T21:35:15.998Z,100810.56
2023-01-09T21:37:43.388Z,100817.94
2023-01-09T21:40:19.070Z,100827.59
2023-01-09T21:43:04.236Z,100830.06
2023-01-09T21:45:49.514Z,100831.81
2023-01-09T21:48:16.471Z,100838.91
2023-01-09T21:50:43.422Z,100851.34
2023-01-09T21:53:10.412Z,100852.38
2023-01-09T21:55:38.715Z,100847.09
2023-01-09T21:58:05.630Z,100855.09
2023-01-09T22:00:32.757Z,100862.06
2023-01-09T22:03:01.178Z,100879.13
2023-01-09T22:05:28.179Z,100869.69
2023-01-09T22:07:55.261Z,100887.16
2023-01-09T22:10:22.190Z,100882.44
2023-01-09T22:13:10.188Z,100877.69
2023-01-09T22:15:37.087Z,100884.38
2023-01-09T22:18:04.271Z,100890.00
2023-01-09T22:20:31.142Z,100899.66
2023-01-09T22:22:58.274Z,100907.16
2023-01-09T22:25:25.201Z,100911.81
2023-01-09T22:27:53.466Z,100924.63
2023-01-09T22:30:20.657Z,100923.78
2023-01-09T22:32:47.461Z,100925.09
2023-01-09T22:35:14.425Z,100937.72
2023-01-09T22:37:41.290Z,100934.00
2023-01-09T22:40:09.998Z,100940.72
2023-01-09T22:42:36.950Z,100950.84
2023-01-09T22:45:06.551Z,100956.72
2023-01-09T22:47:33.472Z,100965.78
2023-01-09T22:50:01.333Z,100975.44
2023-01-09T22:52:29.126Z,100984.44
2023-01-09T22:54:55.949Z,100992.75
2023-01-09T22:57:22.870Z,100991.44
2023-01-09T22:59:49.691Z,100996.75
2023-01-09T23:02:18.035Z,100993.06
2023-01-09T23:04:45.089Z,100991.72
2023-01-09T23:07:11.931Z,100993.97
2023-01-09T23:09:39.060Z,101004.16
2023-01-09T23:12:06.721Z,101002.34
2023-01-09T23:14:35.987Z,101019.09
2023-01-09T23:17:03.361Z,101015.13
2023-01-09T23:19:32.566Z,101022.16
2023-01-09T23:22:00.106Z,101025.94
2023-01-09T23:24:27.968Z,101029.91
2023-01-09T23:26:55.280Z,101047.88
2023-01-09T23:29:23.380Z,101039.78
2023-01-09T23:31:53.676Z,101047.56
2023-01-09T23:34:28.938Z,101055.00
2023-01-09T23:36:57.635Z,101062.59
2023-01-09T23:39:24.746Z,101069.81
2023-01-09T23:42:10.218Z,101072.50
2023-01-09T23:44:37.058Z,101072.78
2023-01-09T23:47:03.973Z,101075.56
2023-01-09T23:49:30.859Z,101080.81
2023-01-09T23:52:01.658Z,101077.75
2023-01-09T23:54:28.818Z,101076.47
2023-01-09T23:56:56.563Z,101077.81
2023-01-09T23:59:23.732Z,101074.59
